createdAt,value
2019-02-25T00:02:56.748Z,29.90
2019-02-25T00:05:59.460Z,25.70
2019-02-25T00:09:04.742Z,25.20
2019-02-25T00:12:08.917Z,26.13
2019-02-25T00:15:11.587Z,26.00
2019-02-25T00:18:16.583Z,28.00
2019-02-25T00:21:32.689Z,25.40
2019-02-25T00:24:35.253Z,23.23
2019-02-25T00:27:38.070Z,24.13
2019-02-25T00:30:40.836Z,24.57
2019-02-25T00:33:43.527Z,22.70
2019-02-25T00:36:46.307Z,23.23
2019-02-25T00:39:49.064Z,22.00
2019-02-25T00:42:51.718Z,22.70
2019-02-25T00:45:54.609Z,24.57
2019-02-25T00:48:57.361Z,26.07
2019-02-25T00:52:00.291Z,25.07
2019-02-25T00:55:04.934Z,24.37
2019-02-25T00:58:07.698Z,24.33
2019-02-25T01:01:11.415Z,26.13
2019-02-25T01:04:15.270Z,26.37
2019-02-25T01:07:18.044Z,24.13
2019-02-25T01:10:20.620Z,23.27
2019-02-25T01:13:23.229Z,20.77
2019-02-25T01:16:25.995Z,20.40
2019-02-25T01:19:28.612Z,18.80
2019-02-25T01:22:31.339Z,19.67
2019-02-25T01:25:35.950Z,17.07
2019-02-25T01:28:38.814Z,17.50
2019-02-25T01:31:41.553Z,16.63
2019-02-25T01:34:44.313Z,14.70
2019-02-25T01:37:47.140Z,14.37
2019-02-25T01:40:49.931Z,15.20
2019-02-25T01:43:52.652Z,15.87
2019-02-25T01:46:55.381Z,14.33
2019-02-25T01:49:58.150Z,15.43
2019-02-25T01:53:00.882Z,14.43
2019-02-25T01:56:03.669Z,13.37
2019-02-25T01:59:06.486Z,15.53
2019-02-25T02:02:09.197Z,15.37
2019-02-25T02:05:13.867Z,14.70
2019-02-25T02:08:16.584Z,12.97
2019-02-25T02:11:19.338Z,16.03
2019-02-25T02:14:22.064Z,14.03
2019-02-25T02:17:24.861Z,13.90
2019-02-25T02:20:27.543Z,13.97
2019-02-25T02:23:30.229Z,15.20
2019-02-25T02:26:32.893Z,12.90
2019-02-25T02:29:36.762Z,12.97
2019-02-25T02:32:39.391Z,12.60
2019-02-25T02:35:42.160Z,11.23
2019-02-25T02:38:44.753Z,12.47
2019-02-25T02:42:19.165Z,14.00
2019-02-25T02:45:30.478Z,11.83
2019-02-25T02:48:37.622Z,10.60
2019-02-25T02:51:40.211Z,11.80
2019-02-25T02:54:45.328Z,12.07
2019-02-25T02:57:47.910Z,10.97
2019-02-25T03:00:50.714Z,11.13
2019-02-25T03:03:53.541Z,10.73
2019-02-25T03:06:56.290Z,11.30
2019-02-25T03:09:58.967Z,11.70
2019-02-25T03:13:01.901Z,11.23
2019-02-25T03:16:05.919Z,11.00
2019-02-25T03:19:08.779Z,11.53
2019-02-25T03:22:11.459Z,11.53
2019-02-25T03:25:15.180Z,11.67
2019-02-25T03:28:17.841Z,11.60
2019-02-25T03:31:20.494Z,10.63
2019-02-25T03:34:23.164Z,9.70
2019-02-25T03:37:25.913Z,11.63
2019-02-25T03:40:28.568Z,10.13
2019-02-25T03:43:31.210Z,11.90
2019-02-25T03:46:33.856Z,11.53
2019-02-25T03:49:37.527Z,12.13
2019-02-25T03:52:40.107Z,10.43
2019-02-25T03:55:42.804Z,9.93
2019-02-25T03:58:45.524Z,10.37
2019-02-25T04:01:48.257Z,10.90
2019-02-25T04:04:50.878Z,9.87
2019-02-25T04:07:53.657Z,11.53
2019-02-25T04:10:56.369Z,11.47
2019-02-25T04:13:59.056Z,11.47
2019-02-25T04:17:01.771Z,12.07
2019-02-25T04:20:05.203Z,10.90
2019-02-25T04:23:07.846Z,11.00
2019-02-25T04:26:10.564Z,11.33
2019-02-25T04:29:13.233Z,12.50
2019-02-25T04:32:15.968Z,11.20
2019-02-25T04:35:18.648Z,11.47
2019-02-25T04:38:21.533Z,13.50
2019-02-25T04:41:24.191Z,13.20
2019-02-25T04:44:27.022Z,12.13
2019-02-25T04:47:29.626Z,14.83
2019-02-25T04:50:32.352Z,13.50
2019-02-25T04:53:35.037Z,13.73
2019-02-25T04:56:37.799Z,12.07
2019-02-25T04:59:40.580Z,12.60
2019-02-25T05:02:43.234Z,12.73
2019-02-25T05:05:45.880Z,13.33
2019-02-25T05:08:48.605Z,13.67
2019-02-25T05:11:51.314Z,12.43
2019-02-25T05:14:53.870Z,11.77
2019-02-25T05:17:56.491Z,10.83
2019-02-25T05:20:59.151Z,11.57
2019-02-25T05:24:01.916Z,10.03
2019-02-25T05:27:05.704Z,9.70
2019-02-25T05:30:08.867Z,10.47
2019-02-25T05:33:12.670Z,9.50
2019-02-25T05:36:15.469Z,8.53
2019-02-25T05:39:18.165Z,10.57
2019-02-25T05:42:20.865Z,11.20
2019-02-25T05:45:23.600Z,10.13
2019-02-25T05:48:26.343Z,10.43
2019-02-25T05:51:29.079Z,9.50
2019-02-25T05:54:37.637Z,9.87
2019-02-25T05:57:40.345Z,9.80
2019-02-25T06:00:43.018Z,8.80
2019-02-25T06:03:45.723Z,9.83
2019-02-25T06:06:49.533Z,10.57
2019-02-25T06:09:52.992Z,10.93
2019-02-25T06:12:57.592Z,11.47
2019-02-25T06:16:00.842Z,14.37
2019-02-25T06:19:03.687Z,13.87
2019-02-25T06:22:06.420Z,13.70
2019-02-25T06:25:09.251Z,13.90
2019-02-25T06:28:11.888Z,12.73
2019-02-25T06:31:18.411Z,13.70
2019-02-25T06:34:21.144Z,13.17
2019-02-25T06:37:23.839Z,12.87
2019-02-25T06:40:26.615Z,12.47
2019-02-25T06:43:29.407Z,10.63
2019-02-25T06:46:32.276Z,10.80
2019-02-25T06:49:35.065Z,10.73
2019-02-25T06:52:37.870Z,10.03
2019-02-25T06:55:40.762Z,9.67
2019-02-25T06:58:49.174Z,9.87
2019-02-25T07:01:51.943Z,9.00
2019-02-25T07:05:11.022Z,8.10
2019-02-25T07:08:21.689Z,10.00
2019-02-25T07:12:00.815Z,7.07
2019-02-25T07:15:29.991Z,8.37
2019-02-25T07:18:52.108Z,9.40
2019-02-25T07:22:21.195Z,7.93
2019-02-25T07:25:49.078Z,7.33
2019-02-25T07:29:20.676Z,8.43
2019-02-25T07:32:33.058Z,8.10
2019-02-25T07:36:01.066Z,9.63
2019-02-25T07:39:13.622Z,6.93
2019-02-25T07:42:38.607Z,7.77
2019-02-25T07:46:06.753Z,6.33
2019-02-25T07:49:31.633Z,6.47
2019-02-25T07:52:53.719Z,6.33
2019-02-25T07:56:31.454Z,6.77
2019-02-25T07:59:53.724Z,5.20
2019-02-25T08:03:06.433Z,5.70
2019-02-25T08:06:26.323Z,5.20
2019-02-25T08:09:47.459Z,6.83
2019-02-25T08:13:08.889Z,5.47
2019-02-25T08:16:46.072Z,5.77
2019-02-25T08:20:08.248Z,4.70
2019-02-25T08:23:29.363Z,6.03
2019-02-25T08:26:54.232Z,4.10
2019-02-25T08:30:22.502Z,4.30
2019-02-25T08:33:55.469Z,4.63
2019-02-25T08:37:23.832Z,4.30
2019-02-25T08:40:43.842Z,5.60
2019-02-25T08:44:06.022Z,3.87
2019-02-25T08:47:26.609Z,3.90
2019-02-25T08:50:29.800Z,3.83
2019-02-25T08:53:32.487Z,4.23
2019-02-25T08:56:35.255Z,3.80
2019-02-25T08:59:38.165Z,3.90
2019-02-25T09:02:41.887Z,4.87
2019-02-25T09:05:44.538Z,4.53
2019-02-25T09:08:47.348Z,4.13
2019-02-25T09:11:50.087Z,6.47
2019-02-25T09:14:52.832Z,4.33
2019-02-25T09:17:54.447Z,4.60
2019-02-25T09:20:57.206Z,4.40
2019-02-25T09:23:59.812Z,3.93
2019-02-25T09:27:02.559Z,3.93
2019-02-25T09:30:08.519Z,5.13
2019-02-25T09:33:11.280Z,4.70
2019-02-25T09:36:14.009Z,4.03
2019-02-25T09:39:16.893Z,4.03
2019-02-25T09:42:19.746Z,4.80
2019-02-25T09:45:22.603Z,4.30
2019-02-25T09:48:25.284Z,3.53
2019-02-25T09:51:28.000Z,5.57
2019-02-25T09:54:30.666Z,4.50
2019-02-25T09:57:33.620Z,4.50
2019-02-25T10:00:36.346Z,4.40
2019-02-25T10:03:39.252Z,4.13
2019-02-25T10:06:41.924Z,4.73
2019-02-25T10:09:44.609Z,4.47
2019-02-25T10:12:47.341Z,4.17
2019-02-25T10:15:50.079Z,4.73
2019-02-25T10:18:52.759Z,5.37
2019-02-25T10:21:56.643Z,4.10
2019-02-25T10:24:59.735Z,4.27
2019-02-25T10:28:02.527Z,4.87
2019-02-25T10:31:05.350Z,4.00
2019-02-25T10:34:08.128Z,3.47
2019-02-25T10:37:11.559Z,3.77
2019-02-25T10:40:17.565Z,3.73
2019-02-25T10:43:19.917Z,3.53
2019-02-25T10:46:22.746Z,3.50
2019-02-25T10:49:26.779Z,3.00
2019-02-25T10:52:30.322Z,2.77
2019-02-25T10:55:36.530Z,4.37
2019-02-25T10:58:39.427Z,3.03
2019-02-25T11:01:43.430Z,3.53
2019-02-25T11:04:47.463Z,3.97
2019-02-25T11:07:51.604Z,3.40
2019-02-25T11:11:13.488Z,4.47
2019-02-25T11:14:16.241Z,2.97
2019-02-25T11:17:20.428Z,3.63
2019-02-25T11:20:23.875Z,3.20
2019-02-25T11:23:26.792Z,4.13
2019-02-25T11:26:30.621Z,4.27
2019-02-25T11:29:59.304Z,3.23
2019-02-25T11:33:02.354Z,3.03
2019-02-25T11:36:07.038Z,2.57
2019-02-25T11:39:10.506Z,3.70
2019-02-25T11:42:15.610Z,2.87
2019-02-25T11:45:18.094Z,2.97
2019-02-25T11:48:22.686Z,2.83
2019-02-25T11:51:27.219Z,3.33
2019-02-25T11:54:30.476Z,2.87
2019-02-25T11:57:33.263Z,3.87
2019-02-25T12:00:36.248Z,1.83
2019-02-25T12:03:42.297Z,3.57
2019-02-25T12:06:45.224Z,2.80
2019-02-25T12:09:48.091Z,2.47
2019-02-25T12:12:51.092Z,3.00
2019-02-25T12:15:53.968Z,3.57
2019-02-25T12:18:57.012Z,3.53
2019-02-25T12:21:59.849Z,2.60
2019-02-25T12:25:02.726Z,2.20
2019-02-25T12:28:05.535Z,2.63
2019-02-25T12:31:08.407Z,2.33
2019-02-25T12:34:11.168Z,2.60
2019-02-25T12:37:14.165Z,3.20
2019-02-25T12:40:17.678Z,3.20
2019-02-25T12:43:20.663Z,2.10
2019-02-25T12:46:23.448Z,1.80
2019-02-25T12:49:26.112Z,2.63
2019-02-25T12:52:28.824Z,2.70
2019-02-25T12:55:31.793Z,2.20
2019-02-25T12:58:34.693Z,2.70
2019-02-25T13:01:43.405Z,2.83
2019-02-25T13:04:46.189Z,2.37
2019-02-25T13:07:49.357Z,3.63
2019-02-25T13:10:52.221Z,2.97
2019-02-25T13:13:55.144Z,2.70
2019-02-25T13:16:57.958Z,2.87
2019-02-25T13:20:00.845Z,3.30
2019-02-25T13:23:03.631Z,4.33
2019-02-25T13:26:07.868Z,2.47
2019-02-25T13:29:10.634Z,4.23
2019-02-25T13:32:13.482Z,3.50
2019-02-25T13:35:16.355Z,4.27
2019-02-25T13:38:19.224Z,2.43
2019-02-25T13:41:21.924Z,3.10
2019-02-25T13:44:24.951Z,2.53
2019-02-25T13:47:27.777Z,2.60
2019-02-25T13:50:30.830Z,3.67
2019-02-25T13:53:33.798Z,3.63
2019-02-25T13:56:36.520Z,3.50
2019-02-25T13:59:39.289Z,3.47
2019-02-25T14:02:42.078Z,2.73
2019-02-25T14:05:44.869Z,3.70
2019-02-25T14:08:47.746Z,3.80
2019-02-25T14:11:50.623Z,4.07
2019-02-25T14:14:53.619Z,2.80
2019-02-25T14:17:56.446Z,3.50
2019-02-25T14:20:59.214Z,3.93
2019-02-25T14:24:02.275Z,4.20
2019-02-25T14:27:05.309Z,3.50
2019-02-25T14:30:12.501Z,4.17
2019-02-25T14:33:15.730Z,4.67
2019-02-25T14:36:19.922Z,4.83
2019-02-25T14:39:27.795Z,3.70
2019-02-25T14:42:30.923Z,5.03
2019-02-25T14:45:34.598Z,6.03
2019-02-25T14:48:37.572Z,6.43
2019-02-25T14:51:40.859Z,6.40
2019-02-25T14:54:45.798Z,5.83
2019-02-25T14:57:48.382Z,5.43
2019-02-25T15:00:51.319Z,6.13
2019-02-25T15:03:55.525Z,7.53
2019-02-25T15:06:59.890Z,8.10
2019-02-25T15:10:04.276Z,8.63
2019-02-25T15:13:10.595Z,9.47
2019-02-25T15:16:13.506Z,9.23
2019-02-25T15:19:16.462Z,8.00
2019-02-25T15:22:40.771Z,8.20
2019-02-25T15:26:17.263Z,11.60
2019-02-25T15:29:16.521Z,9.67
2019-02-25T15:32:19.988Z,8.40
2019-02-25T15:35:26.561Z,8.23
2019-02-25T15:38:28.998Z,9.73
2019-02-25T15:41:33.062Z,12.50
2019-02-25T15:44:37.060Z,13.43
2019-02-25T15:47:40.110Z,15.83
2019-02-25T15:50:46.070Z,14.83
2019-02-25T15:53:57.634Z,13.30
2019-02-25T15:57:00.943Z,15.33
2019-02-25T16:00:04.928Z,13.23
2019-02-25T16:03:09.129Z,14.87
2019-02-25T16:06:12.850Z,17.53
2019-02-25T16:09:19.249Z,19.50
2019-02-25T16:12:25.074Z,25.90
2019-02-25T16:15:30.698Z,27.43
2019-02-25T16:18:34.267Z,32.23
2019-02-25T16:21:40.801Z,32.07
2019-02-25T16:24:43.597Z,29.63
2019-02-25T16:27:49.899Z,29.47
2019-02-25T16:30:51.598Z,51.23
2019-02-25T16:33:55.512Z,44.87
2019-02-25T16:37:00.469Z,48.00
2019-02-25T16:40:06.515Z,41.67
2019-02-25T16:43:12.713Z,49.40
2019-02-25T16:46:16.225Z,65.40
2019-02-25T16:49:20.148Z,54.97
2019-02-25T16:52:24.488Z,47.53
2019-02-25T16:55:28.848Z,33.33
2019-02-25T16:58:33.697Z,50.53
2019-02-25T17:01:37.521Z,46.07
2019-02-25T17:04:43.060Z,43.47
2019-02-25T17:07:48.892Z,39.37
2019-02-25T17:10:53.948Z,53.13
2019-02-25T17:13:57.788Z,63.27
2019-02-25T17:17:01.931Z,55.10
2019-02-25T17:20:10.507Z,63.83
2019-02-25T17:23:24.709Z,56.43
2019-02-25T17:26:29.320Z,62.77
2019-02-25T17:29:55.604Z,59.57
2019-02-25T17:33:05.457Z,44.93
2019-02-25T17:36:18.158Z,59.97
2019-02-25T17:39:54.499Z,54.40
2019-02-25T17:42:59.052Z,57.03
2019-02-25T17:49:43.408Z,42.23
2019-02-25T17:53:00.923Z,59.77
2019-02-25T17:56:13.157Z,46.17
2019-02-25T17:59:16.985Z,39.63
2019-02-25T18:02:31.313Z,41.93
2019-02-25T18:05:36.421Z,41.80
2019-02-25T18:08:41.168Z,28.47
2019-02-25T18:11:45.454Z,52.10
2019-02-25T18:14:48.984Z,48.20
2019-02-25T18:17:53.450Z,65.97
2019-02-25T18:20:56.501Z,51.37
2019-02-25T18:24:26.692Z,43.43
2019-02-25T18:27:35.258Z,44.27
2019-02-25T18:30:41.232Z,59.47
2019-02-25T18:34:06.788Z,57.33
2019-02-25T18:37:11.400Z,51.60
2019-02-25T18:40:16.345Z,40.57
2019-02-25T18:43:20.475Z,54.27
2019-02-25T18:46:25.568Z,56.53
2019-02-25T18:49:30.370Z,58.93
2019-02-25T18:52:34.186Z,43.30
2019-02-25T18:55:38.382Z,53.97
2019-02-25T18:58:42.679Z,66.03
2019-02-25T19:01:47.143Z,60.37
2019-02-25T19:04:50.162Z,65.47
2019-02-25T19:07:54.982Z,61.00
2019-02-25T19:10:57.850Z,44.87
2019-02-25T19:14:03.192Z,44.03
2019-02-25T19:17:06.570Z,55.30
2019-02-25T19:20:10.355Z,45.43
2019-02-25T19:23:13.894Z,68.27
2019-02-25T19:26:19.564Z,64.00
2019-02-25T19:29:23.829Z,55.33
2019-02-25T19:32:26.877Z,62.83
2019-02-25T19:35:30.984Z,40.30
2019-02-25T19:38:36.724Z,58.27
2019-02-25T19:41:39.519Z,53.97
2019-02-25T19:44:42.448Z,53.93
2019-02-25T19:47:45.493Z,53.00
2019-02-25T19:50:51.421Z,42.03
2019-02-25T19:54:02.635Z,34.00
2019-02-25T19:57:08.784Z,51.70
2019-02-25T20:00:22.063Z,49.37
2019-02-25T20:03:30.972Z,52.07
2019-02-25T20:06:51.363Z,45.63
2019-02-25T20:09:57.817Z,24.97
2019-02-25T20:13:14.712Z,36.30
2019-02-25T20:16:30.363Z,52.40
2019-02-25T20:19:34.932Z,49.47
2019-02-25T20:22:40.875Z,49.60
2019-02-25T20:25:46.526Z,50.37
2019-02-25T20:28:50.408Z,32.07
2019-02-25T20:31:53.654Z,46.37
2019-02-25T20:34:59.361Z,47.13
2019-02-25T20:38:04.610Z,47.77
2019-02-25T20:41:06.921Z,34.60
2019-02-25T20:44:09.873Z,46.97
2019-02-25T20:47:12.546Z,45.23
2019-02-25T20:50:17.121Z,45.30
2019-02-25T20:53:19.969Z,43.97
2019-02-25T20:56:24.442Z,43.30
2019-02-25T20:59:28.291Z,40.97
2019-02-25T21:02:35.425Z,39.37
2019-02-25T21:05:38.261Z,43.67
2019-02-25T21:08:42.355Z,42.73
2019-02-25T21:11:45.909Z,37.50
2019-02-25T21:14:48.662Z,43.67
2019-02-25T21:17:52.159Z,44.53
2019-02-25T21:20:56.199Z,42.27
2019-02-25T21:24:01.345Z,41.10
2019-02-25T21:27:05.836Z,41.63
2019-02-25T21:30:11.267Z,43.90
2019-02-25T21:33:17.357Z,39.17
2019-02-25T21:36:18.616Z,43.67
2019-02-25T21:39:21.405Z,39.10
2019-02-25T21:42:24.749Z,42.50
2019-02-25T21:45:31.751Z,39.97
2019-02-25T21:48:36.975Z,40.90
2019-02-25T21:51:41.512Z,41.40
2019-02-25T21:54:45.063Z,39.03
2019-02-25T21:57:49.039Z,42.33
2019-02-25T22:00:51.795Z,39.13
2019-02-25T22:03:55.428Z,38.33
2019-02-25T22:07:00.160Z,39.83
2019-02-25T22:10:05.567Z,38.17
2019-02-25T22:13:09.490Z,38.20
2019-02-25T22:16:13.699Z,41.37
2019-02-25T22:19:18.629Z,36.63
2019-02-25T22:22:24.084Z,38.50
2019-02-25T22:25:26.221Z,40.30
2019-02-25T22:28:30.586Z,35.13
2019-02-25T22:31:35.402Z,38.43
2019-02-25T22:34:38.689Z,37.20
2019-02-25T22:37:44.174Z,38.80
2019-02-25T22:40:46.416Z,36.70
2019-02-25T22:43:49.322Z,37.53
2019-02-25T22:46:52.330Z,34.77
2019-02-25T22:49:55.254Z,37.97
2019-02-25T22:53:00.604Z,37.43
2019-02-25T22:56:02.920Z,33.80
2019-02-25T22:59:05.945Z,40.27
2019-02-25T23:02:10.816Z,39.23
2019-02-25T23:05:15.215Z,39.90
2019-02-25T23:08:20.869Z,35.63
2019-02-25T23:11:24.355Z,39.57
2019-02-25T23:14:28.140Z,40.57
2019-02-25T23:17:33.317Z,39.67
2019-02-25T23:20:35.993Z,40.13
2019-02-25T23:23:40.139Z,41.47
2019-02-25T23:26:43.317Z,37.50
2019-02-25T23:29:48.298Z,39.40
2019-02-25T23:32:52.343Z,42.20
2019-02-25T23:35:56.145Z,41.63
2019-02-25T23:38:59.577Z,38.60
2019-02-25T23:42:06.853Z,38.80
2019-02-25T23:45:12.546Z,42.13
2019-02-25T23:48:15.457Z,36.83
2019-02-25T23:51:19.091Z,39.43
2019-02-25T23:54:23.644Z,42.23
2019-02-25T23:57:28.754Z,35.93
